sensor_id;sensor_type;location;lat;lon;timestamp;temperature;humidity
15947;DHT22;8072;52.554;7.966;2023-02-14T00:01:12;2.90;99.90
15947;DHT22;8072;52.554;7.966;2023-02-14T00:03:38;2.80;99.90
15947;DHT22;8072;52.554;7.966;2023-02-14T00:06:06;2.80;99.90
15947;DHT22;8072;52.554;7.966;2023-02-14T00:08:32;2.80;99.90
15947;DHT22;8072;52.554;7.966;2023-02-14T00:10:58;2.80;99.90
15947;DHT22;8072;52.554;7.966;2023-02-14T00:13:23;2.90;99.90
15947;DHT22;8072;52.554;7.966;2023-02-14T00:15:49;2.90;99.90
15947;DHT22;8072;52.554;7.966;2023-02-14T00:18:15;2.90;99.90
15947;DHT22;8072;52.554;7.966;2023-02-14T00:20:41;2.90;99.90
15947;DHT22;8072;52.554;7.966;2023-02-14T00:23:06;2.90;99.90
15947;DHT22;8072;52.554;7.966;2023-02-14T00:25:33;2.80;99.90
15947;DHT22;8072;52.554;7.966;2023-02-14T00:27:58;2.80;99.90
15947;DHT22;8072;52.554;7.966;2023-02-14T00:30:24;2.70;99.90
15947;DHT22;8072;52.554;7.966;2023-02-14T00:32:50;2.70;99.90
15947;DHT22;8072;52.554;7.966;2023-02-14T00:35:16;2.70;99.90
15947;DHT22;8072;52.554;7.966;2023-02-14T00:37:41;2.70;99.90
15947;DHT22;8072;52.554;7.966;2023-02-14T00:40:08;2.70;99.90
15947;DHT22;8072;52.554;7.966;2023-02-14T00:42:33;2.70;99.90
15947;DHT22;8072;52.554;7.966;2023-02-14T00:44:59;2.70;99.90
15947;DHT22;8072;52.554;7.966;2023-02-14T00:47:25;2.70;99.90
15947;DHT22;8072;52.554;7.966;2023-02-14T00:49:51;2.60;99.90
15947;DHT22;8072;52.554;7.966;2023-02-14T00:52:16;2.60;99.90
15947;DHT22;8072;52.554;7.966;2023-02-14T00:54:42;2.60;99.90
15947;DHT22;8072;52.554;7.966;2023-02-14T00:57:08;2.60;99.90
15947;DHT22;8072;52.554;7.966;2023-02-14T00:59:33;2.60;99.90
15947;DHT22;8072;52.554;7.966;2023-02-14T01:01:59;2.50;99.90
15947;DHT22;8072;52.554;7.966;2023-02-14T01:04:25;2.50;99.90
15947;DHT22;8072;52.554;7.966;2023-02-14T01:06:50;2.50;99.90
15947;DHT22;8072;52.554;7.966;2023-02-14T01:09:16;2.50;99.90
15947;DHT22;8072;52.554;7.966;2023-02-14T01:11:42;2.40;99.90
15947;DHT22;8072;52.554;7.966;2023-02-14T01:14:08;2.40;99.90
15947;DHT22;8072;52.554;7.966;2023-02-14T01:16:34;2.30;99.90
15947;DHT22;8072;52.554;7.966;2023-02-14T01:19:01;2.20;99.90
15947;DHT22;8072;52.554;7.966;2023-02-14T01:21:29;2.20;99.90
15947;DHT22;8072;52.554;7.966;2023-02-14T01:23:57;2.10;99.90
15947;DHT22;8072;52.554;7.966;2023-02-14T01:26:23;2.10;99.90
15947;DHT22;8072;52.554;7.966;2023-02-14T01:28:49;2.10;99.90
15947;DHT22;8072;52.554;7.966;2023-02-14T01:31:21;2.00;99.90
15947;DHT22;8072;52.554;7.966;2023-02-14T01:33:48;2.00;99.90
15947;DHT22;8072;52.554;7.966;2023-02-14T01:36:16;1.90;99.90
15947;DHT22;8072;52.554;7.966;2023-02-14T01:38:42;1.90;99.90
15947;DHT22;8072;52.554;7.966;2023-02-14T01:41:08;1.90;99.90
15947;DHT22;8072;52.554;7.966;2023-02-14T01:46:18;1.80;99.90
15947;DHT22;8072;52.554;7.966;2023-02-14T01:48:44;1.80;99.90
15947;DHT22;8072;52.554;7.966;2023-02-14T01:51:10;1.80;99.90
15947;DHT22;8072;52.554;7.966;2023-02-14T01:53:36;1.80;99.90
15947;DHT22;8072;52.554;7.966;2023-02-14T01:56:12;1.70;99.90
15947;DHT22;8072;52.554;7.966;2023-02-14T01:58:40;1.70;99.90
15947;DHT22;8072;52.554;7.966;2023-02-14T02:01:12;1.70;99.90
15947;DHT22;8072;52.554;7.966;2023-02-14T02:03:48;1.70;99.90
15947;DHT22;8072;52.554;7.966;2023-02-14T02:06:39;1.70;99.90
15947;DHT22;8072;52.554;7.966;2023-02-14T02:12:12;1.70;99.90
15947;DHT22;8072;52.554;7.966;2023-02-14T02:14:38;1.60;99.90
15947;DHT22;8072;52.554;7.966;2023-02-14T02:17:28;1.60;99.90
15947;DHT22;8072;52.554;7.966;2023-02-14T02:20:25;1.60;99.90
15947;DHT22;8072;52.554;7.966;2023-02-14T02:43:34;1.40;99.90
15947;DHT22;8072;52.554;7.966;2023-02-14T02:46:18;1.40;99.90
15947;DHT22;8072;52.554;7.966;2023-02-14T02:52:02;1.30;99.90
15947;DHT22;8072;52.554;7.966;2023-02-14T02:54:57;1.30;99.90
15947;DHT22;8072;52.554;7.966;2023-02-14T02:57:33;1.30;99.90
15947;DHT22;8072;52.554;7.966;2023-02-14T03:00:03;1.30;99.90
15947;DHT22;8072;52.554;7.966;2023-02-14T03:02:42;1.40;99.90
15947;DHT22;8072;52.554;7.966;2023-02-14T03:05:28;1.40;99.90
15947;DHT22;8072;52.554;7.966;2023-02-14T03:07:54;1.30;99.90
15947;DHT22;8072;52.554;7.966;2023-02-14T03:10:26;1.30;99.90
15947;DHT22;8072;52.554;7.966;2023-02-14T03:13:12;1.30;99.90
15947;DHT22;8072;52.554;7.966;2023-02-14T03:24:27;1.40;99.90
15947;DHT22;8072;52.554;7.966;2023-02-14T03:30:02;1.50;99.90
15947;DHT22;8072;52.554;7.966;2023-02-14T03:35:29;1.50;99.90
15947;DHT22;8072;52.554;7.966;2023-02-14T03:40:57;1.60;99.90
15947;DHT22;8072;52.554;7.966;2023-02-14T03:43:30;1.60;99.90
15947;DHT22;8072;52.554;7.966;2023-02-14T03:48:30;1.70;99.90
15947;DHT22;8072;52.554;7.966;2023-02-14T03:50:58;1.70;99.90
15947;DHT22;8072;52.554;7.966;2023-02-14T03:53:27;1.70;99.90
15947;DHT22;8072;52.554;7.966;2023-02-14T03:58:30;1.70;99.90
15947;DHT22;8072;52.554;7.966;2023-02-14T04:01:43;1.70;99.90
15947;DHT22;8072;52.554;7.966;2023-02-14T04:03:51;1.80;99.90
15947;DHT22;8072;52.554;7.966;2023-02-14T04:06:19;1.80;99.90
15947;DHT22;8072;52.554;7.966;2023-02-14T04:08:45;1.80;99.90
15947;DHT22;8072;52.554;7.966;2023-02-14T04:11:11;1.80;99.90
15947;DHT22;8072;52.554;7.966;2023-02-14T04:13:37;1.80;99.90
15947;DHT22;8072;52.554;7.966;2023-02-14T04:16:03;1.80;99.90
15947;DHT22;8072;52.554;7.966;2023-02-14T04:18:29;1.80;99.90
15947;DHT22;8072;52.554;7.966;2023-02-14T04:21:16;1.80;99.90
15947;DHT22;8072;52.554;7.966;2023-02-14T04:23:42;1.80;99.90
15947;DHT22;8072;52.554;7.966;2023-02-14T04:26:08;1.80;99.90
15947;DHT22;8072;52.554;7.966;2023-02-14T04:28:34;1.80;99.90
15947;DHT22;8072;52.554;7.966;2023-02-14T04:31:01;1.80;99.90
15947;DHT22;8072;52.554;7.966;2023-02-14T04:33:27;1.80;99.90
15947;DHT22;8072;52.554;7.966;2023-02-14T04:35:53;1.80;99.90
15947;DHT22;8072;52.554;7.966;2023-02-14T04:38:19;1.80;99.90
15947;DHT22;8072;52.554;7.966;2023-02-14T04:40:48;1.80;99.90
15947;DHT22;8072;52.554;7.966;2023-02-14T04:43:14;1.80;99.90
15947;DHT22;8072;52.554;7.966;2023-02-14T04:45:39;1.80;99.90
15947;DHT22;8072;52.554;7.966;2023-02-14T04:48:05;1.80;99.90
15947;DHT22;8072;52.554;7.966;2023-02-14T04:50:31;1.70;99.90
15947;DHT22;8072;52.554;7.966;2023-02-14T04:52:56;1.70;99.90
15947;DHT22;8072;52.554;7.966;2023-02-14T04:55:22;1.70;99.90
15947;DHT22;8072;52.554;7.966;2023-02-14T04:57:48;1.60;99.90
15947;DHT22;8072;52.554;7.966;2023-02-14T05:00:14;1.60;99.90
15947;DHT22;8072;52.554;7.966;2023-02-14T05:02:40;1.50;99.90
15947;DHT22;8072;52.554;7.966;2023-02-14T05:05:06;1.60;99.90
15947;DHT22;8072;52.554;7.966;2023-02-14T05:07:32;1.50;99.90
15947;DHT22;8072;52.554;7.966;2023-02-14T05:09:57;1.50;99.90
15947;DHT22;8072;52.554;7.966;2023-02-14T05:12:23;1.50;99.90
15947;DHT22;8072;52.554;7.966;2023-02-14T05:14:49;1.50;99.90
15947;DHT22;8072;52.554;7.966;2023-02-14T05:17:14;1.50;99.90
15947;DHT22;8072;52.554;7.966;2023-02-14T05:19:40;1.50;99.90
15947;DHT22;8072;52.554;7.966;2023-02-14T05:22:06;1.50;99.90
15947;DHT22;8072;52.554;7.966;2023-02-14T05:24:32;1.50;99.90
15947;DHT22;8072;52.554;7.966;2023-02-14T05:26:57;1.40;99.90
15947;DHT22;8072;52.554;7.966;2023-02-14T05:29:23;1.40;99.90
15947;DHT22;8072;52.554;7.966;2023-02-14T05:31:49;1.40;99.90
15947;DHT22;8072;52.554;7.966;2023-02-14T05:34:14;1.30;99.90
15947;DHT22;8072;52.554;7.966;2023-02-14T05:36:40;1.20;99.90
15947;DHT22;8072;52.554;7.966;2023-02-14T05:39:06;1.20;99.90
15947;DHT22;8072;52.554;7.966;2023-02-14T05:41:32;1.30;99.90
15947;DHT22;8072;52.554;7.966;2023-02-14T05:43:57;1.20;99.90
15947;DHT22;8072;52.554;7.966;2023-02-14T05:46:23;1.10;99.90
15947;DHT22;8072;52.554;7.966;2023-02-14T05:48:49;1.10;99.90
15947;DHT22;8072;52.554;7.966;2023-02-14T05:51:15;1.10;99.90
15947;DHT22;8072;52.554;7.966;2023-02-14T05:53:40;1.10;99.90
15947;DHT22;8072;52.554;7.966;2023-02-14T05:56:06;1.10;99.90
15947;DHT22;8072;52.554;7.966;2023-02-14T05:58:32;1.10;99.90
15947;DHT22;8072;52.554;7.966;2023-02-14T06:00:59;1.00;99.90
15947;DHT22;8072;52.554;7.966;2023-02-14T06:03:25;1.00;99.90
15947;DHT22;8072;52.554;7.966;2023-02-14T06:05:51;1.10;99.90
15947;DHT22;8072;52.554;7.966;2023-02-14T06:08:16;1.10;99.90
15947;DHT22;8072;52.554;7.966;2023-02-14T06:10:42;1.10;99.90
15947;DHT22;8072;52.554;7.966;2023-02-14T06:13:08;1.00;99.90
15947;DHT22;8072;52.554;7.966;2023-02-14T06:15:36;1.00;99.90
15947;DHT22;8072;52.554;7.966;2023-02-14T06:18:02;1.00;99.90
15947;DHT22;8072;52.554;7.966;2023-02-14T06:20:28;1.00;99.90
15947;DHT22;8072;52.554;7.966;2023-02-14T06:22:54;1.00;99.90
15947;DHT22;8072;52.554;7.966;2023-02-14T06:25:22;1.10;99.90
15947;DHT22;8072;52.554;7.966;2023-02-14T06:27:48;1.10;99.90
15947;DHT22;8072;52.554;7.966;2023-02-14T06:30:14;1.00;99.90
15947;DHT22;8072;52.554;7.966;2023-02-14T06:32:41;1.00;99.90
15947;DHT22;8072;52.554;7.966;2023-02-14T06:35:07;1.00;99.90
15947;DHT22;8072;52.554;7.966;2023-02-14T06:37:32;1.00;99.90
15947;DHT22;8072;52.554;7.966;2023-02-14T06:39:58;1.00;99.90
15947;DHT22;8072;52.554;7.966;2023-02-14T06:42:24;1.00;99.90
15947;DHT22;8072;52.554;7.966;2023-02-14T06:44:50;1.00;99.90
15947;DHT22;8072;52.554;7.966;2023-02-14T06:47:16;1.00;99.90
15947;DHT22;8072;52.554;7.966;2023-02-14T06:49:41;1.00;99.90
15947;DHT22;8072;52.554;7.966;2023-02-14T06:52:07;0.90;99.90
15947;DHT22;8072;52.554;7.966;2023-02-14T06:54:33;0.90;99.90
15947;DHT22;8072;52.554;7.966;2023-02-14T06:56:59;0.90;99.90
15947;DHT22;8072;52.554;7.966;2023-02-14T06:59:25;0.90;99.90
15947;DHT22;8072;52.554;7.966;2023-02-14T07:01:50;0.90;99.90
15947;DHT22;8072;52.554;7.966;2023-02-14T07:04:16;0.90;99.90
15947;DHT22;8072;52.554;7.966;2023-02-14T07:06:43;0.90;99.90
15947;DHT22;8072;52.554;7.966;2023-02-14T07:09:09;0.90;99.90
15947;DHT22;8072;52.554;7.966;2023-02-14T07:11:35;0.90;99.90
15947;DHT22;8072;52.554;7.966;2023-02-14T07:14:01;0.90;99.90
15947;DHT22;8072;52.554;7.966;2023-02-14T07:16:27;0.90;99.90
15947;DHT22;8072;52.554;7.966;2023-02-14T07:18:52;0.90;99.90
15947;DHT22;8072;52.554;7.966;2023-02-14T07:21:18;0.90;99.90
15947;DHT22;8072;52.554;7.966;2023-02-14T07:23:44;0.80;99.90
15947;DHT22;8072;52.554;7.966;2023-02-14T07:26:14;0.80;99.90
15947;DHT22;8072;52.554;7.966;2023-02-14T07:28:46;0.80;99.90
15947;DHT22;8072;52.554;7.966;2023-02-14T07:31:17;0.70;99.90
15947;DHT22;8072;52.554;7.966;2023-02-14T07:33:44;0.70;99.90
15947;DHT22;8072;52.554;7.966;2023-02-14T07:36:10;0.70;99.90
15947;DHT22;8072;52.554;7.966;2023-02-14T07:38:36;0.70;99.90
15947;DHT22;8072;52.554;7.966;2023-02-14T07:41:03;0.70;99.90
15947;DHT22;8072;52.554;7.966;2023-02-14T07:43:29;0.60;99.90
15947;DHT22;8072;52.554;7.966;2023-02-14T07:45:55;0.60;99.90
15947;DHT22;8072;52.554;7.966;2023-02-14T07:48:21;0.60;99.90
15947;DHT22;8072;52.554;7.966;2023-02-14T07:50:47;0.60;99.90
15947;DHT22;8072;52.554;7.966;2023-02-14T07:53:13;0.60;99.90
15947;DHT22;8072;52.554;7.966;2023-02-14T07:55:39;0.60;99.90
15947;DHT22;8072;52.554;7.966;2023-02-14T07:58:05;0.60;99.90
15947;DHT22;8072;52.554;7.966;2023-02-14T08:00:31;0.60;99.90
15947;DHT22;8072;52.554;7.966;2023-02-14T08:02:57;0.60;99.90
15947;DHT22;8072;52.554;7.966;2023-02-14T08:05:23;0.60;99.90
15947;DHT22;8072;52.554;7.966;2023-02-14T08:07:48;0.70;99.90
15947;DHT22;8072;52.554;7.966;2023-02-14T08:10:15;0.70;99.90
15947;DHT22;8072;52.554;7.966;2023-02-14T08:12:41;0.70;99.90
15947;DHT22;8072;52.554;7.966;2023-02-14T08:15:32;0.70;99.90
15947;DHT22;8072;52.554;7.966;2023-02-14T08:18:18;0.80;99.90
15947;DHT22;8072;52.554;7.966;2023-02-14T08:20:46;0.80;99.90
15947;DHT22;8072;52.554;7.966;2023-02-14T08:23:14;0.80;99.90
15947;DHT22;8072;52.554;7.966;2023-02-14T08:25:40;0.90;99.90
15947;DHT22;8072;52.554;7.966;2023-02-14T08:28:06;0.90;99.90
15947;DHT22;8072;52.554;7.966;2023-02-14T08:30:35;1.00;99.90
15947;DHT22;8072;52.554;7.966;2023-02-14T08:33:02;1.10;99.90
15947;DHT22;8072;52.554;7.966;2023-02-14T08:35:28;1.10;99.90
15947;DHT22;8072;52.554;7.966;2023-02-14T08:37:54;1.20;99.90
15947;DHT22;8072;52.554;7.966;2023-02-14T08:40:19;1.20;99.90
15947;DHT22;8072;52.554;7.966;2023-02-14T08:42:45;1.30;99.90
15947;DHT22;8072;52.554;7.966;2023-02-14T08:45:11;1.40;99.90
15947;DHT22;8072;52.554;7.966;2023-02-14T08:47:37;1.50;99.90
15947;DHT22;8072;52.554;7.966;2023-02-14T08:50:05;1.60;99.90
15947;DHT22;8072;52.554;7.966;2023-02-14T08:52:31;1.60;99.90
15947;DHT22;8072;52.554;7.966;2023-02-14T08:54:56;1.70;99.90
15947;DHT22;8072;52.554;7.966;2023-02-14T08:57:22;1.90;99.90
15947;DHT22;8072;52.554;7.966;2023-02-14T08:59:48;2.00;99.90
15947;DHT22;8072;52.554;7.966;2023-02-14T09:02:14;2.00;99.90
15947;DHT22;8072;52.554;7.966;2023-02-14T09:04:43;2.10;99.90
15947;DHT22;8072;52.554;7.966;2023-02-14T09:07:11;2.20;99.90
15947;DHT22;8072;52.554;7.966;2023-02-14T09:09:37;2.30;99.90
15947;DHT22;8072;52.554;7.966;2023-02-14T09:12:07;2.40;99.90
15947;DHT22;8072;52.554;7.966;2023-02-14T09:14:37;2.50;99.90
15947;DHT22;8072;52.554;7.966;2023-02-14T09:17:03;2.60;99.90
15947;DHT22;8072;52.554;7.966;2023-02-14T09:19:34;2.70;99.90
15947;DHT22;8072;52.554;7.966;2023-02-14T09:22:00;2.90;99.90
15947;DHT22;8072;52.554;7.966;2023-02-14T09:24:29;3.00;99.90
15947;DHT22;8072;52.554;7.966;2023-02-14T09:26:55;3.10;99.90
15947;DHT22;8072;52.554;7.966;2023-02-14T09:29:23;3.20;99.90
15947;DHT22;8072;52.554;7.966;2023-02-14T09:31:56;3.40;99.90
15947;DHT22;8072;52.554;7.966;2023-02-14T09:34:23;3.50;99.90
15947;DHT22;8072;52.554;7.966;2023-02-14T09:36:49;3.60;99.90
15947;DHT22;8072;52.554;7.966;2023-02-14T09:39:33;3.80;99.90
15947;DHT22;8072;52.554;7.966;2023-02-14T09:49:55;4.40;99.90
15947;DHT22;8072;52.554;7.966;2023-02-14T09:52:29;4.40;99.90
15947;DHT22;8072;52.554;7.966;2023-02-14T09:54:58;4.60;99.90
15947;DHT22;8072;52.554;7.966;2023-02-14T09:57:38;4.70;99.90
15947;DHT22;8072;52.554;7.966;2023-02-14T10:05:58;5.10;99.90
15947;DHT22;8072;52.554;7.966;2023-02-14T10:09:06;5.20;99.90
15947;DHT22;8072;52.554;7.966;2023-02-14T10:11:34;5.30;99.90
15947;DHT22;8072;52.554;7.966;2023-02-14T10:14:08;5.50;99.90
15947;DHT22;8072;52.554;7.966;2023-02-14T10:16:46;5.60;99.90
15947;DHT22;8072;52.554;7.966;2023-02-14T10:19:40;5.70;99.90
15947;DHT22;8072;52.554;7.966;2023-02-14T10:22:20;5.80;99.90
15947;DHT22;8072;52.554;7.966;2023-02-14T10:25:00;5.90;99.90
15947;DHT22;8072;52.554;7.966;2023-02-14T10:27:31;6.00;99.90
15947;DHT22;8072;52.554;7.966;2023-02-14T10:29:58;6.10;99.90
15947;DHT22;8072;52.554;7.966;2023-02-14T10:32:49;6.20;99.90
15947;DHT22;8072;52.554;7.966;2023-02-14T10:40:44;6.60;99.90
15947;DHT22;8072;52.554;7.966;2023-02-14T10:54:31;7.40;99.90
15947;DHT22;8072;52.554;7.966;2023-02-14T10:57:02;7.60;99.90
15947;DHT22;8072;52.554;7.966;2023-02-14T11:02:24;7.90;99.90
15947;DHT22;8072;52.554;7.966;2023-02-14T11:04:52;8.10;99.90
15947;DHT22;8072;52.554;7.966;2023-02-14T11:07:20;8.20;99.90
15947;DHT22;8072;52.554;7.966;2023-02-14T11:09:46;8.30;99.90
15947;DHT22;8072;52.554;7.966;2023-02-14T11:12:30;8.50;99.90
15947;DHT22;8072;52.554;7.966;2023-02-14T11:15:21;8.70;99.90
15947;DHT22;8072;52.554;7.966;2023-02-14T11:17:48;8.80;99.90
15947;DHT22;8072;52.554;7.966;2023-02-14T11:20:25;9.00;99.90
15947;DHT22;8072;52.554;7.966;2023-02-14T11:22:52;9.10;99.90
15947;DHT22;8072;52.554;7.966;2023-02-14T11:25:24;9.20;99.90
15947;DHT22;8072;52.554;7.966;2023-02-14T11:28:02;9.50;99.90
15947;DHT22;8072;52.554;7.966;2023-02-14T11:30:39;9.70;99.90
15947;DHT22;8072;52.554;7.966;2023-02-14T11:33:09;9.90;99.90
15947;DHT22;8072;52.554;7.966;2023-02-14T11:35:37;10.00;99.90
15947;DHT22;8072;52.554;7.966;2023-02-14T11:38:27;10.10;99.90
15947;DHT22;8072;52.554;7.966;2023-02-14T11:40:56;10.30;99.90
15947;DHT22;8072;52.554;7.966;2023-02-14T11:43:40;10.50;99.90
15947;DHT22;8072;52.554;7.966;2023-02-14T11:51:27;11.00;99.90
15947;DHT22;8072;52.554;7.966;2023-02-14T11:53:55;11.10;99.90
15947;DHT22;8072;52.554;7.966;2023-02-14T11:59:12;11.50;99.90
15947;DHT22;8072;52.554;7.966;2023-02-14T12:01:38;11.70;99.90
15947;DHT22;8072;52.554;7.966;2023-02-14T12:04:12;11.80;99.90
15947;DHT22;8072;52.554;7.966;2023-02-14T12:06:39;12.10;99.90
15947;DHT22;8072;52.554;7.966;2023-02-14T12:14:24;12.50;99.90
15947;DHT22;8072;52.554;7.966;2023-02-14T12:16:59;12.60;99.90
15947;DHT22;8072;52.554;7.966;2023-02-14T12:22:07;12.80;99.90
15947;DHT22;8072;52.554;7.966;2023-02-14T12:32:31;13.30;99.90
15947;DHT22;8072;52.554;7.966;2023-02-14T12:42:56;13.80;99.90
15947;DHT22;8072;52.554;7.966;2023-02-14T12:45:50;13.90;99.90
15947;DHT22;8072;52.554;7.966;2023-02-14T12:48:37;14.10;99.90
15947;DHT22;8072;52.554;7.966;2023-02-14T12:53:57;14.30;99.90
15947;DHT22;8072;52.554;7.966;2023-02-14T12:59:14;14.50;99.90
15947;DHT22;8072;52.554;7.966;2023-02-14T13:09:43;14.90;99.90
15947;DHT22;8072;52.554;7.966;2023-02-14T13:15:24;14.90;99.90
15947;DHT22;8072;52.554;7.966;2023-02-14T13:20:56;14.90;99.90
15947;DHT22;8072;52.554;7.966;2023-02-14T13:23:32;15.00;99.90
15947;DHT22;8072;52.554;7.966;2023-02-14T13:26:18;15.00;99.90
15947;DHT22;8072;52.554;7.966;2023-02-14T13:29:18;15.10;99.90
15947;DHT22;8072;52.554;7.966;2023-02-14T13:31:45;15.20;99.90
15947;DHT22;8072;52.554;7.966;2023-02-14T13:36:49;15.20;99.90
15947;DHT22;8072;52.554;7.966;2023-02-14T13:39:36;15.10;99.90
15947;DHT22;8072;52.554;7.966;2023-02-14T13:42:03;15.10;99.90
15947;DHT22;8072;52.554;7.966;2023-02-14T13:44:55;15.10;99.90
15947;DHT22;8072;52.554;7.966;2023-02-14T13:47:23;15.10;99.90
15947;DHT22;8072;52.554;7.966;2023-02-14T13:49:59;15.10;99.90
15947;DHT22;8072;52.554;7.966;2023-02-14T13:52:45;15.20;99.90
15947;DHT22;8072;52.554;7.966;2023-02-14T13:55:16;15.20;99.90
15947;DHT22;8072;52.554;7.966;2023-02-14T13:57:43;15.20;99.90
15947;DHT22;8072;52.554;7.966;2023-02-14T14:02:51;15.40;99.90
15947;DHT22;8072;52.554;7.966;2023-02-14T14:10:57;15.20;99.90
15947;DHT22;8072;52.554;7.966;2023-02-14T14:18:57;15.00;99.90
15947;DHT22;8072;52.554;7.966;2023-02-14T14:26:42;14.90;99.90
15947;DHT22;8072;52.554;7.966;2023-02-14T14:29:18;15.00;99.90
15947;DHT22;8072;52.554;7.966;2023-02-14T14:31:47;14.90;99.90
15947;DHT22;8072;52.554;7.966;2023-02-14T14:34:18;15.00;99.90
15947;DHT22;8072;52.554;7.966;2023-02-14T14:36:45;14.90;99.90
15947;DHT22;8072;52.554;7.966;2023-02-14T14:39:11;14.90;99.90
15947;DHT22;8072;52.554;7.966;2023-02-14T14:41:38;14.80;99.90
15947;DHT22;8072;52.554;7.966;2023-02-14T14:44:05;14.80;99.90
15947;DHT22;8072;52.554;7.966;2023-02-14T14:46:31;14.60;99.90
15947;DHT22;8072;52.554;7.966;2023-02-14T14:48:57;14.60;99.90
15947;DHT22;8072;52.554;7.966;2023-02-14T14:51:30;14.60;99.90
15947;DHT22;8072;52.554;7.966;2023-02-14T14:54:05;14.50;99.90
15947;DHT22;8072;52.554;7.966;2023-02-14T14:56:37;14.40;99.90
15947;DHT22;8072;52.554;7.966;2023-02-14T15:01:49;14.40;99.90
15947;DHT22;8072;52.554;7.966;2023-02-14T15:04:17;14.40;99.90
15947;DHT22;8072;52.554;7.966;2023-02-14T15:06:44;14.40;99.90
15947;DHT22;8072;52.554;7.966;2023-02-14T15:09:12;14.40;99.90
15947;DHT22;8072;52.554;7.966;2023-02-14T15:11:39;14.40;99.90
15947;DHT22;8072;52.554;7.966;2023-02-14T15:14:25;14.30;99.90
15947;DHT22;8072;52.554;7.966;2023-02-14T15:17:04;14.30;99.90
15947;DHT22;8072;52.554;7.966;2023-02-14T15:19:37;14.30;99.90
15947;DHT22;8072;52.554;7.966;2023-02-14T15:22:20;14.20;99.90
15947;DHT22;8072;52.554;7.966;2023-02-14T15:24:48;14.20;99.90
15947;DHT22;8072;52.554;7.966;2023-02-14T15:27:17;14.20;99.90
15947;DHT22;8072;52.554;7.966;2023-02-14T15:30:00;14.10;99.90
15947;DHT22;8072;52.554;7.966;2023-02-14T15:32:30;14.00;99.90
15947;DHT22;8072;52.554;7.966;2023-02-14T15:34:58;13.90;99.90
15947;DHT22;8072;52.554;7.966;2023-02-14T15:37:25;13.80;99.90
15947;DHT22;8072;52.554;7.966;2023-02-14T15:39:53;13.60;99.90
15947;DHT22;8072;52.554;7.966;2023-02-14T15:42:30;13.50;99.90
15947;DHT22;8072;52.554;7.966;2023-02-14T15:47:45;13.30;99.90
15947;DHT22;8072;52.554;7.966;2023-02-14T15:50:16;13.20;99.90
15947;DHT22;8072;52.554;7.966;2023-02-14T15:52:43;13.10;99.90
15947;DHT22;8072;52.554;7.966;2023-02-14T15:55:10;13.00;99.90
15947;DHT22;8072;52.554;7.966;2023-02-14T15:57:36;12.90;99.90
15947;DHT22;8072;52.554;7.966;2023-02-14T16:00:04;12.80;99.90
15947;DHT22;8072;52.554;7.966;2023-02-14T16:02:38;12.70;99.90
15947;DHT22;8072;52.554;7.966;2023-02-14T16:05:17;12.60;99.90
15947;DHT22;8072;52.554;7.966;2023-02-14T16:08:06;12.60;99.90
15947;DHT22;8072;52.554;7.966;2023-02-14T16:13:34;12.40;99.90
15947;DHT22;8072;52.554;7.966;2023-02-14T16:16:03;12.30;99.90
15947;DHT22;8072;52.554;7.966;2023-02-14T16:18:58;12.30;99.90
15947;DHT22;8072;52.554;7.966;2023-02-14T16:21:30;12.20;99.90
15947;DHT22;8072;52.554;7.966;2023-02-14T16:26:39;11.90;99.90
15947;DHT22;8072;52.554;7.966;2023-02-14T16:29:08;11.80;99.90
15947;DHT22;8072;52.554;7.966;2023-02-14T16:31:35;11.70;99.90
15947;DHT22;8072;52.554;7.966;2023-02-14T16:34:02;11.60;99.90
15947;DHT22;8072;52.554;7.966;2023-02-14T16:36:30;11.60;99.90
15947;DHT22;8072;52.554;7.966;2023-02-14T16:38:56;11.40;99.90
15947;DHT22;8072;52.554;7.966;2023-02-14T16:41:27;11.30;99.90
15947;DHT22;8072;52.554;7.966;2023-02-14T16:43:54;11.30;99.90
15947;DHT22;8072;52.554;7.966;2023-02-14T16:46:30;11.20;99.90
15947;DHT22;8072;52.554;7.966;2023-02-14T16:48:57;11.10;99.90
15947;DHT22;8072;52.554;7.966;2023-02-14T16:51:26;11.00;99.90
15947;DHT22;8072;52.554;7.966;2023-02-14T16:53:54;10.90;99.90
15947;DHT22;8072;52.554;7.966;2023-02-14T16:56:39;10.70;99.90
15947;DHT22;8072;52.554;7.966;2023-02-14T16:59:06;10.70;99.90
15947;DHT22;8072;52.554;7.966;2023-02-14T17:01:31;10.60;99.90
15947;DHT22;8072;52.554;7.966;2023-02-14T17:03:57;10.50;99.90
15947;DHT22;8072;52.554;7.966;2023-02-14T17:06:25;10.40;99.90
15947;DHT22;8072;52.554;7.966;2023-02-14T17:08:55;10.30;99.90
15947;DHT22;8072;52.554;7.966;2023-02-14T17:11:24;10.20;99.90
15947;DHT22;8072;52.554;7.966;2023-02-14T17:13:52;10.10;99.90
15947;DHT22;8072;52.554;7.966;2023-02-14T17:16:18;10.10;99.90
15947;DHT22;8072;52.554;7.966;2023-02-14T17:18:47;10.00;99.90
15947;DHT22;8072;52.554;7.966;2023-02-14T17:21:15;9.90;99.90
15947;DHT22;8072;52.554;7.966;2023-02-14T17:23:41;9.80;99.90
15947;DHT22;8072;52.554;7.966;2023-02-14T17:26:07;9.70;99.90
15947;DHT22;8072;52.554;7.966;2023-02-14T17:28:32;9.60;99.90
15947;DHT22;8072;52.554;7.966;2023-02-14T17:30:58;9.50;99.90
15947;DHT22;8072;52.554;7.966;2023-02-14T17:33:24;9.40;99.90
15947;DHT22;8072;52.554;7.966;2023-02-14T17:35:50;9.30;99.90
15947;DHT22;8072;52.554;7.966;2023-02-14T17:38:17;9.20;99.90
15947;DHT22;8072;52.554;7.966;2023-02-14T17:40:43;9.20;99.90
15947;DHT22;8072;52.554;7.966;2023-02-14T17:43:09;9.10;99.90
15947;DHT22;8072;52.554;7.966;2023-02-14T17:45:35;9.00;99.90
15947;DHT22;8072;52.554;7.966;2023-02-14T17:48:00;8.90;99.90
15947;DHT22;8072;52.554;7.966;2023-02-14T17:50:27;8.80;99.90
15947;DHT22;8072;52.554;7.966;2023-02-14T17:52:57;8.80;99.90
15947;DHT22;8072;52.554;7.966;2023-02-14T17:55:23;8.70;99.90
15947;DHT22;8072;52.554;7.966;2023-02-14T17:57:49;8.60;99.90
15947;DHT22;8072;52.554;7.966;2023-02-14T18:00:21;8.60;99.90
15947;DHT22;8072;52.554;7.966;2023-02-14T18:02:47;8.50;99.90
15947;DHT22;8072;52.554;7.966;2023-02-14T18:05:14;8.40;99.90
15947;DHT22;8072;52.554;7.966;2023-02-14T18:07:40;8.30;99.90
15947;DHT22;8072;52.554;7.966;2023-02-14T18:10:06;8.30;99.90
15947;DHT22;8072;52.554;7.966;2023-02-14T18:12:32;8.20;99.90
15947;DHT22;8072;52.554;7.966;2023-02-14T18:14:57;8.10;99.90
15947;DHT22;8072;52.554;7.966;2023-02-14T18:17:23;8.10;99.90
15947;DHT22;8072;52.554;7.966;2023-02-14T18:19:49;8.00;99.90
15947;DHT22;8072;52.554;7.966;2023-02-14T18:22:15;7.90;99.90
15947;DHT22;8072;52.554;7.966;2023-02-14T18:24:40;7.80;99.90
15947;DHT22;8072;52.554;7.966;2023-02-14T18:27:06;7.70;99.90
15947;DHT22;8072;52.554;7.966;2023-02-14T18:29:32;7.70;99.90
15947;DHT22;8072;52.554;7.966;2023-02-14T18:31:59;7.60;99.90
15947;DHT22;8072;52.554;7.966;2023-02-14T18:34:25;7.40;99.90
15947;DHT22;8072;52.554;7.966;2023-02-14T18:36:51;7.30;99.90
15947;DHT22;8072;52.554;7.966;2023-02-14T18:39:16;7.30;99.90
15947;DHT22;8072;52.554;7.966;2023-02-14T18:41:44;7.20;99.90
15947;DHT22;8072;52.554;7.966;2023-02-14T18:44:10;7.20;99.90
15947;DHT22;8072;52.554;7.966;2023-02-14T18:46:38;7.10;99.90
15947;DHT22;8072;52.554;7.966;2023-02-14T18:49:04;7.10;99.90
15947;DHT22;8072;52.554;7.966;2023-02-14T18:51:34;7.00;99.90
15947;DHT22;8072;52.554;7.966;2023-02-14T18:54:02;6.90;99.90
15947;DHT22;8072;52.554;7.966;2023-02-14T18:56:31;6.90;99.90
15947;DHT22;8072;52.554;7.966;2023-02-14T18:58:59;6.90;99.90
15947;DHT22;8072;52.554;7.966;2023-02-14T19:01:29;6.80;99.90